Time;durP1;ratioP1;P1;durP2;ratioP2;P2;SDS_P1;SDS_P2;PMS_P1;PMS_P2;Temp;Humidity;BMP_temperature;BMP_pressure;BME280_temperature;BME280_humidity;BME280_pressure;Samples;Min_cycle;Max_cycle;Signal;HPM_P1;HPM_P2
2021/09/15 00:01:53;;;;;;;0.90;0.63;;;;;;;21.32;67.72;101144.38;5041244;28;20051;-87
2021/09/15 00:04:20;;;;;;;0.20;0.20;;;;;;;21.29;67.85;101141.00;5060867;28;20108;-89
2021/09/15 00:06:46;;;;;;;0.28;0.28;;;;;;;21.30;67.82;101143.59;5058096;28;20407;-90
2021/09/15 00:09:13;;;;;;;0.10;0.10;;;;;;;21.28;67.46;101137.47;5055003;28;20028;-87
2021/09/15 00:11:39;;;;;;;0.40;0.40;;;;;;;21.29;67.67;101138.31;5056465;28;20044;-87
2021/09/15 00:14:06;;;;;;;2.92;0.57;;;;;;;21.26;67.75;101139.38;5057452;28;20032;-88
2021/09/15 00:16:33;;;;;;;0.35;0.35;;;;;;;21.27;67.56;101138.41;5054959;28;20159;-86
2021/09/15 00:19:00;;;;;;;0.30;0.30;;;;;;;21.25;67.82;101137.63;5055114;28;20031;-87
2021/09/15 00:21:29;;;;;;;0.10;0.10;;;;;;;21.24;67.66;101141.28;5055130;28;20571;-87
2021/09/15 00:23:55;;;;;;;0.50;0.50;;;;;;;21.26;67.66;101144.75;5052339;28;20029;-87
2021/09/15 00:26:25;;;;;;;0.20;0.20;;;;;;;21.26;67.79;101144.75;5054113;28;20033;-87
2021/09/15 00:28:52;;;;;;;0.20;0.20;;;;;;;21.29;67.98;101144.56;5054886;28;20027;-88
2021/09/15 00:31:18;;;;;;;0.30;0.30;;;;;;;21.33;67.76;101139.84;5054794;28;20476;-87
2021/09/15 00:33:45;;;;;;;0.52;0.52;;;;;;;21.37;68.10;101140.53;5054182;28;20047;-87
2021/09/15 00:36:11;;;;;;;0.63;0.63;;;;;;;21.40;67.91;101134.97;5055699;28;20376;-87
2021/09/15 00:38:38;;;;;;;0.10;0.10;;;;;;;21.42;67.74;101133.03;5054297;28;20017;-87
2021/09/15 00:41:05;;;;;;;0.20;0.20;;;;;;;21.42;67.83;101138.44;5053874;28;20163;-87
2021/09/15 00:43:32;;;;;;;0.50;0.30;;;;;;;21.40;68.01;101145.75;5054329;28;20021;-87
2021/09/15 00:45:58;;;;;;;0.10;0.10;;;;;;;21.38;67.71;101136.88;5055529;28;20048;-92
2021/09/15 00:48:25;;;;;;;0.25;0.25;;;;;;;21.34;68.18;101136.22;5056227;28;20083;-87
2021/09/15 00:50:52;;;;;;;0.85;0.45;;;;;;;21.30;67.71;101130.13;5054976;28;20036;-87
2021/09/15 00:53:19;;;;;;;0.73;0.73;;;;;;;21.25;67.90;101140.31;5055293;28;20036;-87
2021/09/15 00:55:46;;;;;;;0.15;0.15;;;;;;;21.21;67.58;101136.09;5055002;28;20103;-90
2021/09/15 00:58:12;;;;;;;0.40;0.40;;;;;;;21.15;67.81;101141.84;5055341;28;20455;-90
2021/09/15 01:00:39;;;;;;;0.10;0.10;;;;;;;21.12;68.11;101136.63;5054327;28;20040;-93
2021/09/15 01:03:06;;;;;;;0.50;0.50;;;;;;;21.10;68.17;101135.88;5055566;28;20019;-88
2021/09/15 01:05:32;;;;;;;0.30;0.30;;;;;;;21.07;67.87;101123.47;5054625;28;20017;-87
2021/09/15 01:07:59;;;;;;;0.20;0.20;;;;;;;21.05;67.96;101129.88;5056729;28;20384;-87
2021/09/15 01:10:26;;;;;;;0.20;0.20;;;;;;;21.02;68.17;101136.31;5068884;28;20029;-87
2021/09/15 01:12:54;;;;;;;0.10;0.10;;;;;;;20.97;68.62;101127.63;5059887;28;20043;-87
2021/09/15 01:15:20;;;;;;;0.65;0.47;;;;;;;20.90;68.62;101135.22;5060282;28;20468;-86
2021/09/15 01:17:46;;;;;;;1.55;1.45;;;;;;;20.88;68.60;101126.34;5068658;28;20032;-87
2021/09/15 01:20:13;;;;;;;0.35;0.35;;;;;;;20.84;68.88;101128.34;5056488;28;20061;-87
2021/09/15 01:22:39;;;;;;;0.17;0.17;;;;;;;20.86;68.57;101136.38;5066992;28;20025;-87
2021/09/15 01:25:06;;;;;;;0.20;0.20;;;;;;;20.84;68.77;101125.66;5055073;28;20033;-87
2021/09/15 01:27:33;;;;;;;1.48;0.68;;;;;;;20.83;69.17;101125.75;5066553;28;20103;-87
2021/09/15 01:29:59;;;;;;;0.10;0.10;;;;;;;20.83;68.74;101131.16;5056261;28;20024;-87
2021/09/15 01:32:25;;;;;;;0.28;0.28;;;;;;;20.78;68.98;101139.47;5068924;28;20502;-87
2021/09/15 01:34:52;;;;;;;0.22;0.22;;;;;;;20.79;68.87;101140.38;5054800;28;20029;-86
2021/09/15 01:37:19;;;;;;;0.20;0.20;;;;;;;20.78;68.89;101130.56;5056239;28;20061;-87
2021/09/15 01:39:45;;;;;;;0.30;0.30;;;;;;;20.80;68.89;101126.81;5068110;28;20032;-87
2021/09/15 01:42:12;;;;;;;0.10;0.10;;;;;;;20.81;68.85;101123.16;5056195;28;20478;-87
2021/09/15 01:44:43;;;;;;;0.10;0.10;;;;;;;20.83;68.65;101118.53;5067299;28;20028;-87
2021/09/15 01:47:11;;;;;;;1.42;0.32;;;;;;;20.83;68.62;101110.47;5054550;28;20041;-87
2021/09/15 01:49:40;;;;;;;0.55;0.55;;;;;;;20.80;68.74;101109.81;5058937;22;20457;-79
2021/09/15 01:52:07;;;;;;;2.42;1.40;;;;;;;20.76;68.71;101109.09;5034065;28;20030;-79
2021/09/15 01:54:34;;;;;;;0.10;0.10;;;;;;;20.74;68.77;101102.09;5049199;28;20112;-80
2021/09/15 01:57:01;;;;;;;0.10;0.10;;;;;;;20.73;68.79;101103.88;5037627;28;20028;-80
2021/09/15 01:59:28;;;;;;;0.32;0.32;;;;;;;20.72;68.48;101106.69;5042137;28;20034;-79
2021/09/15 02:01:54;;;;;;;0.10;0.10;;;;;;;20.69;69.10;101108.56;5045105;28;20602;-79
2021/09/15 02:04:21;;;;;;;0.75;0.75;;;;;;;20.69;68.95;101107.69;5036869;28;20087;-80
2021/09/15 02:06:47;;;;;;;0.10;0.10;;;;;;;20.70;68.71;101098.66;5049337;28;20037;-80
2021/09/15 02:09:14;;;;;;;0.43;0.43;;;;;;;20.70;68.89;101101.34;5038789;28;20032;-80
2021/09/15 02:11:40;;;;;;;0.55;0.55;;;;;;;20.68;68.59;101101.41;5043116;28;20391;-79
2021/09/15 02:14:07;;;;;;;0.10;0.10;;;;;;;20.67;68.55;101094.34;5038924;28;20049;-80
2021/09/15 02:16:34;;;;;;;0.10;0.10;;;;;;;20.64;68.58;101104.41;5049181;28;20040;-80
2021/09/15 02:19:01;;;;;;;3.00;0.60;;;;;;;20.61;68.51;101100.06;5035613;28;20526;-80
2021/09/15 02:21:27;;;;;;;0.32;0.32;;;;;;;20.60;68.30;101106.41;5041491;28;20033;-80
2021/09/15 02:23:54;;;;;;;0.00;0.00;;;;;;;20.57;68.33;101101.19;5040657;28;20033;-79
2021/09/15 02:26:20;;;;;;;0.55;0.55;;;;;;;20.53;68.43;101096.94;5048513;28;20360;-79
2021/09/15 02:28:46;;;;;;;0.20;0.20;;;;;;;20.50;68.21;101102.53;5035868;28;20025;-80
2021/09/15 02:31:13;;;;;;;0.20;0.20;;;;;;;20.52;68.55;101097.91;5044943;28;20041;-79
2021/09/15 02:33:40;;;;;;;1.45;0.80;;;;;;;20.52;68.50;101100.59;5043051;28;20033;-80
2021/09/15 02:36:06;;;;;;;0.50;0.50;;;;;;;20.53;68.36;101103.19;5038907;28;20061;-79
2021/09/15 02:38:32;;;;;;;0.10;0.10;;;;;;;20.53;68.42;101103.19;5048958;28;20029;-80
2021/09/15 02:40:59;;;;;;;0.17;0.17;;;;;;;20.53;68.33;101102.34;5034088;28;20029;-79
2021/09/15 02:43:25;;;;;;;0.10;0.10;;;;;;;20.53;68.31;101103.19;5040996;28;20028;-80
2021/09/15 02:45:51;;;;;;;0.20;0.20;;;;;;;20.53;68.35;101097.81;5040583;28;20479;-80
2021/09/15 02:48:18;;;;;;;0.20;0.20;;;;;;;20.53;68.37;101095.09;5034782;28;20025;-79
2021/09/15 02:50:44;;;;;;;0.10;0.10;;;;;;;20.53;68.50;101094.25;5034656;28;20046;-79
2021/09/15 02:53:10;;;;;;;0.10;0.10;;;;;;;20.52;68.26;101095.22;5038593;28;20036;-80
2021/09/15 02:55:37;;;;;;;0.20;0.20;;;;;;;20.51;68.41;101088.09;5042563;28;20033;-80
2021/09/15 02:58:04;;;;;;;0.20;0.20;;;;;;;20.48;68.20;101090.97;5047774;28;20061;-80
2021/09/15 03:00:31;;;;;;;0.10;0.10;;;;;;;20.46;68.13;101090.19;5038969;28;20487;-80
2021/09/15 03:02:57;;;;;;;0.10;0.10;;;;;;;20.44;68.32;101086.72;5051654;28;20488;-80
2021/09/15 03:05:24;;;;;;;0.10;0.10;;;;;;;20.44;68.11;101079.50;5044372;28;20036;-80
2021/09/15 03:07:50;;;;;;;0.10;0.10;;;;;;;20.42;68.31;101077.88;5044261;28;20112;-80
2021/09/15 03:10:16;;;;;;;0.10;0.10;;;;;;;20.41;68.21;101077.00;5051196;28;20373;-80
2021/09/15 03:12:43;;;;;;;0.20;0.20;;;;;;;20.41;68.11;101076.13;5039093;28;20396;-80
2021/09/15 03:15:09;;;;;;;0.20;0.20;;;;;;;20.38;68.13;101076.31;5049591;28;20034;-80
2021/09/15 03:17:36;;;;;;;0.17;0.17;;;;;;;20.38;68.10;101065.56;5045631;28;20392;-79
2021/09/15 03:20:03;;;;;;;0.10;0.10;;;;;;;20.35;68.11;101070.16;5042768;28;20114;-80
2021/09/15 03:22:30;;;;;;;0.10;0.10;;;;;;;20.32;67.93;101073.00;5052207;28;20036;-80
2021/09/15 03:24:56;;;;;;;0.10;0.10;;;;;;;20.30;68.00;101077.63;5039760;28;20056;-79
2021/09/15 03:27:22;;;;;;;0.10;0.10;;;;;;;20.28;67.94;101066.06;5047580;28;20498;-80
2021/09/15 03:29:49;;;;;;;0.10;0.10;;;;;;;20.26;67.82;101061.72;5036417;28;20360;-80
2021/09/15 03:32:15;;;;;;;0.20;0.20;;;;;;;20.24;67.97;101061.81;5039020;28;20029;-80
2021/09/15 03:34:41;;;;;;;0.80;0.63;;;;;;;20.23;67.88;101072.69;5051058;28;20040;-80
2021/09/15 03:37:08;;;;;;;0.68;0.68;;;;;;;20.20;67.94;101065.66;5035525;28;20053;-80
2021/09/15 03:39:35;;;;;;;0.10;0.10;;;;;;;20.18;67.88;101067.56;5044663;28;20083;-80
2021/09/15 03:42:01;;;;;;;1.10;1.08;;;;;;;20.18;67.82;101070.25;5041982;28;20033;-80
2021/09/15 03:44:28;;;;;;;0.10;0.10;;;;;;;20.17;67.97;101077.44;5051680;28;20108;-80
2021/09/15 03:46:55;;;;;;;0.20;0.20;;;;;;;20.19;67.87;101069.28;5038694;28;20033;-80
2021/09/15 03:49:22;;;;;;;0.70;0.68;;;;;;;20.17;67.90;101076.56;5045493;28;20032;-80
2021/09/15 03:51:49;;;;;;;0.40;0.40;;;;;;;20.18;68.13;101081.00;5043706;28;20365;-79
2021/09/15 03:54:16;;;;;;;0.10;0.10;;;;;;;20.18;68.26;101081.00;5050127;28;20475;-79
2021/09/15 03:56:43;;;;;;;0.10;0.10;;;;;;;20.16;68.23;101075.72;5038434;28;20527;-79
2021/09/15 03:59:10;;;;;;;0.93;0.63;;;;;;;20.16;68.44;101075.72;5046277;28;20078;-80
2021/09/15 04:01:36;;;;;;;0.15;0.15;;;;;;;20.17;68.35;101069.34;5044566;28;20553;-80
2021/09/15 04:04:02;;;;;;;0.30;0.30;;;;;;;20.20;68.51;101073.72;5041729;28;20037;-80
2021/09/15 04:06:28;;;;;;;0.75;0.75;;;;;;;20.22;68.28;101077.19;5039811;28;20048;-80
2021/09/15 04:08:54;;;;;;;0.10;0.10;;;;;;;20.23;68.51;101070.84;5045802;28;20455;-80
2021/09/15 04:11:21;;;;;;;0.10;0.10;;;;;;;20.25;68.43;101077.03;5041481;28;20029;-80
2021/09/15 04:13:47;;;;;;;0.30;0.30;;;;;;;20.27;68.52;101080.47;5050269;28;20037;-80
2021/09/15 04:16:13;;;;;;;0.03;0.03;;;;;;;20.28;68.65;101076.81;5038128;28;20079;-80
2021/09/15 04:18:39;;;;;;;0.10;0.10;;;;;;;20.33;68.52;101074.72;5048248;28;20104;-80
2021/09/15 04:21:05;;;;;;;0.10;0.10;;;;;;;20.36;68.55;101071.88;5042247;28;20025;-79
2021/09/15 04:23:40;;;;;;;0.10;0.10;;;;;;;20.41;68.47;101071.63;5047955;28;20036;-79
2021/09/15 04:31:38;;;;;;;0.10;0.10;;;;;;;20.44;68.27;101059.81;5039232;28;20440;-80
2021/09/15 04:34:05;;;;;;;0.10;0.10;;;;;;;20.42;68.49;101067.94;5036753;28;20026;-79
2021/09/15 04:36:31;;;;;;;0.28;0.28;;;;;;;20.40;68.27;101074.38;5039338;28;20032;-79
2021/09/15 04:38:57;;;;;;;0.20;0.20;;;;;;;20.37;68.00;101080.81;5045616;28;20034;-80
2021/09/15 04:41:23;;;;;;;0.40;0.40;;;;;;;20.34;68.18;101084.56;5038531;28;20040;-80
2021/09/15 04:43:49;;;;;;;0.10;0.10;;;;;;;20.32;68.06;101083.75;5040015;28;20147;-80
2021/09/15 04:46:16;;;;;;;0.25;0.25;;;;;;;20.29;67.91;101081.25;5036361;28;20044;-80
2021/09/15 04:48:42;;;;;;;0.20;0.20;;;;;;;20.28;67.94;101079.53;5052791;22;20179;-88
2021/09/15 04:51:08;;;;;;;0.10;0.10;;;;;;;20.28;68.11;101075.97;5041954;28;20039;-88
2021/09/15 04:53:34;;;;;;;0.20;0.20;;;;;;;20.28;68.10;101078.66;5045479;28;20040;-88
2021/09/15 04:56:01;;;;;;;0.10;0.10;;;;;;;20.27;68.37;101074.22;5032487;28;20051;-88
2021/09/15 04:58:27;;;;;;;0.10;0.10;;;;;;;20.27;68.50;101072.41;5029646;28;20388;-88
2021/09/15 05:00:53;;;;;;;0.80;0.80;;;;;;;20.29;68.46;101067.81;5029791;28;20034;-87
2021/09/15 05:03:19;;;;;;;0.10;0.10;;;;;;;20.32;68.56;101074.84;5020180;28;20526;-88
2021/09/15 05:05:46;;;;;;;0.10;0.10;;;;;;;20.31;68.73;101065.91;5023751;28;20034;-88
2021/09/15 05:08:12;;;;;;;0.43;0.43;;;;;;;20.34;68.55;101065.72;5027420;28;20101;-87
2021/09/15 05:10:38;;;;;;;0.30;0.30;;;;;;;20.34;68.41;101060.34;5017175;28;20034;-88
2021/09/15 05:13:04;;;;;;;0.10;0.10;;;;;;;20.34;68.16;101067.56;5028099;28;20451;-88
2021/09/15 05:15:31;;;;;;;0.10;0.10;;;;;;;20.35;68.11;101067.44;5015657;28;20104;-89
2021/09/15 05:17:57;;;;;;;0.10;0.10;;;;;;;20.35;68.31;101066.59;5024738;28;20041;-88
2021/09/15 05:20:25;;;;;;;0.20;0.20;;;;;;;20.36;68.14;101069.19;5017806;28;20109;-88
2021/09/15 05:22:53;;;;;;;0.32;0.32;;;;;;;20.36;68.06;101069.19;5029904;28;20083;-87
2021/09/15 05:25:22;;;;;;;0.30;0.30;;;;;;;20.37;68.06;101075.44;5019945;28;20080;-85
2021/09/15 05:27:48;;;;;;;0.08;0.08;;;;;;;20.38;68.33;101070.94;5022841;28;20030;-88
2021/09/15 05:30:15;;;;;;;0.10;0.10;;;;;;;20.40;68.48;101075.28;5026433;28;20140;-88
2021/09/15 05:32:42;;;;;;;0.10;0.10;;;;;;;20.42;68.50;101067.09;5015995;28;20362;-88
2021/09/15 05:35:10;;;;;;;0.10;0.10;;;;;;;20.43;68.42;101079.59;5017967;28;20073;-88
2021/09/15 05:37:38;;;;;;;0.25;0.25;;;;;;;20.42;68.31;101077.88;5012395;28;20130;-88
2021/09/15 05:40:05;;;;;;;0.10;0.10;;;;;;;20.36;68.13;101071.88;5012811;28;20587;-89
2021/09/15 05:42:31;;;;;;;0.10;0.10;;;;;;;20.37;68.32;101070.06;5012865;28;20034;-87
2021/09/15 05:45:01;;;;;;;0.10;0.10;;;;;;;20.35;68.28;101072.84;5012788;28;20032;-88
2021/09/15 05:47:28;;;;;;;0.10;0.10;;;;;;;20.36;68.25;101076.38;5013110;28;20521;-87
2021/09/15 05:49:55;;;;;;;0.30;0.30;;;;;;;20.36;68.41;101079.97;5012630;28;20112;-88
2021/09/15 05:52:21;;;;;;;0.10;0.10;;;;;;;20.35;68.39;101080.91;5013077;28;20057;-88
2021/09/15 05:54:47;;;;;;;0.10;0.10;;;;;;;20.38;68.48;101081.69;5013338;28;20030;-88
2021/09/15 05:57:13;;;;;;;0.10;0.10;;;;;;;20.35;68.33;101083.59;5013124;28;20034;-89
2021/09/15 05:59:39;;;;;;;0.10;0.10;;;;;;;20.36;68.27;101090.72;5012967;28;20036;-88
2021/09/15 06:02:05;;;;;;;0.15;0.15;;;;;;;20.34;68.71;101089.94;5012676;28;20041;-88
2021/09/15 06:04:31;;;;;;;0.30;0.30;;;;;;;20.36;68.42;101096.09;5012804;28;20026;-88
2021/09/15 06:06:58;;;;;;;0.10;0.10;;;;;;;20.35;68.50;101091.66;5012306;28;20154;-88
2021/09/15 06:09:24;;;;;;;0.10;0.10;;;;;;;20.38;68.70;101096.00;5012335;28;20050;-87
2021/09/15 06:11:50;;;;;;;0.45;0.45;;;;;;;20.40;68.50;101095.91;5016261;28;20045;-87
2021/09/15 06:14:17;;;;;;;0.10;0.10;;;;;;;20.39;68.86;101099.56;5013396;28;20176;-93
2021/09/15 06:16:43;;;;;;;0.40;0.40;;;;;;;20.41;68.51;101103.03;5023160;28;20038;-95
2021/09/15 06:19:18;;;;;;;0.10;0.10;;;;;;;20.43;68.80;101102.00;5020402;28;20116;-93
2021/09/15 06:21:45;;;;;;;0.10;0.10;;;;;;;20.46;68.58;101109.03;5023197;28;20037;-84
2021/09/15 06:24:13;;;;;;;0.22;0.22;;;;;;;20.44;68.57;101109.13;5015827;28;20034;-86
2021/09/15 06:26:40;;;;;;;0.63;0.63;;;;;;;20.46;68.55;101117.97;5029094;28;20090;-86
2021/09/15 06:29:06;;;;;;;0.20;0.20;;;;;;;20.48;68.50;101115.19;5012620;28;20030;-85
2021/09/15 06:31:32;;;;;;;0.10;0.10;;;;;;;20.43;68.87;101122.66;5012629;28;20041;-86
2021/09/15 06:33:59;;;;;;;0.30;0.30;;;;;;;20.40;69.00;101122.81;5020052;28;20156;-85
2021/09/15 06:36:25;;;;;;;0.10;0.10;;;;;;;20.37;68.98;101118.47;5011638;28;20040;-87
2021/09/15 06:38:51;;;;;;;0.10;0.10;;;;;;;20.41;68.81;101117.38;5016649;28;20060;-86
2021/09/15 06:41:20;;;;;;;0.68;0.68;;;;;;;20.39;69.11;101127.34;5017169;28;20060;-87
2021/09/15 06:44:00;;;;;;;0.17;0.17;;;;;;;20.47;68.74;101117.03;5019410;28;20049;-89
2021/09/15 06:46:27;;;;;;;0.10;0.10;;;;;;;20.45;68.95;101121.63;5015699;28;20033;-85
2021/09/15 06:49:00;;;;;;;0.10;0.10;;;;;;;20.46;69.04;101122.47;5014783;28;20041;-86
2021/09/15 06:51:27;;;;;;;0.50;0.50;;;;;;;20.52;68.98;101123.00;5015252;28;20053;-88
2021/09/15 06:53:53;;;;;;;0.10;0.10;;;;;;;20.59;69.11;101118.13;5015213;28;20085;-87
2021/09/15 06:56:21;;;;;;;0.80;0.80;;;;;;;20.71;68.48;101131.81;5015666;28;20030;-83
2021/09/15 06:58:47;;;;;;;0.38;0.38;;;;;;;20.74;68.95;101129.00;5016174;28;20038;-88
2021/09/15 07:01:24;;;;;;;0.22;0.22;;;;;;;20.86;68.59;101130.97;5015011;28;20030;-91
2021/09/15 07:04:14;;;;;;;0.20;0.20;;;;;;;20.85;68.89;101124.72;5110427;22;20027;-92
2021/09/15 07:09:25;;;;;;;0.43;0.43;;;;;;;21.01;68.65;101134.59;5080377;22;20060;-90
2021/09/15 07:12:37;;;;;;;1.05;1.05;;;;;;;21.15;68.46;101131.94;5035752;28;20038;-91
2021/09/15 07:15:08;;;;;;;0.35;0.35;;;;;;;21.19;68.58;101135.31;5022583;28;20547;-90
2021/09/15 07:17:44;;;;;;;0.22;0.22;;;;;;;21.28;68.54;101140.16;5029083;28;20065;-91
2021/09/15 07:20:12;;;;;;;0.20;0.20;;;;;;;21.41;68.68;101136.69;5026649;28;20041;-87
2021/09/15 07:22:39;;;;;;;1.35;1.33;;;;;;;21.50;68.68;101130.75;5030137;28;20076;-88
2021/09/15 07:25:05;;;;;;;0.52;0.52;;;;;;;21.55;68.66;101136.72;5029028;28;20497;-84
2021/09/15 07:27:31;;;;;;;0.98;0.98;;;;;;;21.67;68.60;101137.84;5033605;28;20030;-82
2021/09/15 07:29:57;;;;;;;0.77;0.77;;;;;;;21.69;68.38;101135.03;5032777;28;20037;-82
2021/09/15 07:32:24;;;;;;;2.08;1.60;;;;;;;21.80;68.42;101135.22;5033217;28;20065;-85
2021/09/15 07:34:50;;;;;;;1.65;1.55;;;;;;;21.92;68.08;101123.66;5033819;28;20108;-81
2021/09/15 07:37:17;;;;;;;1.88;0.85;;;;;;;22.03;68.01;101132.91;5034281;28;20034;-83
2021/09/15 07:39:44;;;;;;;0.57;0.57;;;;;;;22.04;67.73;101131.94;5033869;28;20037;-82
2021/09/15 07:42:13;;;;;;;1.50;0.75;;;;;;;22.20;67.49;101129.13;5034407;28;20036;-85
2021/09/15 07:44:43;;;;;;;3.05;1.15;;;;;;;22.33;67.04;101123.78;5033962;28;20033;-86
2021/09/15 07:47:15;;;;;;;1.60;1.50;;;;;;;22.37;66.85;101123.53;5032787;28;20091;-84
2021/09/15 07:49:43;;;;;;;3.70;1.67;;;;;;;22.42;66.17;101120.53;5031601;28;20029;-84
2021/09/15 07:52:09;;;;;;;0.93;0.73;;;;;;;22.44;66.28;101124.88;5034779;28;20492;-85
2021/09/15 07:54:36;;;;;;;0.85;0.85;;;;;;;22.43;65.55;101127.63;5032565;28;20040;-83
2021/09/15 07:57:02;;;;;;;1.20;1.17;;;;;;;22.42;65.33;101129.50;5033543;28;20021;-84
2021/09/15 07:59:28;;;;;;;1.33;1.23;;;;;;;22.31;64.64;101129.28;5033631;28;20520;-87
2021/09/15 08:01:54;;;;;;;0.50;0.50;;;;;;;22.21;64.88;101123.63;5033623;28;20061;-85
2021/09/15 08:04:20;;;;;;;0.43;0.43;;;;;;;22.17;64.82;101119.41;5033376;28;20061;-88
2021/09/15 08:06:47;;;;;;;1.05;1.05;;;;;;;22.02;64.37;101109.56;5033724;28;20037;-88
2021/09/15 08:09:13;;;;;;;0.52;0.52;;;;;;;22.10;64.98;101116.22;5033121;28;20051;-92
2021/09/15 08:11:39;;;;;;;0.10;0.10;;;;;;;22.01;65.35;101116.81;5033366;28;20472;-83
2021/09/15 08:14:05;;;;;;;0.50;0.50;;;;;;;22.07;64.72;101113.72;5033189;28;20037;-83
2021/09/15 08:16:31;;;;;;;0.95;0.82;;;;;;;21.98;62.59;101104.38;5033450;28;20029;-83
2021/09/15 08:19:01;;;;;;;1.35;0.35;;;;;;;21.96;62.35;101106.31;5015140;28;20072;-83
2021/09/15 08:21:28;;;;;;;0.30;0.30;;;;;;;21.71;62.29;101103.44;5033143;28;20388;-83
2021/09/15 08:23:54;;;;;;;0.57;0.57;;;;;;;21.91;62.95;101107.59;5033068;28;20060;-82
2021/09/15 08:26:20;;;;;;;0.80;0.63;;;;;;;21.75;62.13;101108.53;5033342;28;20037;-82
2021/09/15 08:28:47;;;;;;;1.27;0.85;;;;;;;21.91;63.24;101108.44;5032878;28;20018;-83
2021/09/15 08:31:13;;;;;;;0.50;0.50;;;;;;;21.99;62.93;101105.25;5032640;28;20036;-84
2021/09/15 08:33:40;;;;;;;0.40;0.40;;;;;;;21.93;62.04;101102.94;5032860;28;20032;-87
2021/09/15 08:36:06;;;;;;;0.50;0.50;;;;;;;21.89;62.23;101109.50;5032644;28;20372;-86
2021/09/15 08:38:32;;;;;;;0.30;0.30;;;;;;;21.95;62.32;101104.56;5032977;28;20026;-86
2021/09/15 08:40:59;;;;;;;0.13;0.13;;;;;;;22.04;61.94;101111.22;5032686;28;20075;-83
2021/09/15 08:43:25;;;;;;;24.17;1.33;;;;;;;22.04;62.13;101107.66;5032854;28;20094;-85
2021/09/15 08:45:52;;;;;;;0.10;0.10;;;;;;;22.10;61.22;101112.66;5032515;28;20116;-85
2021/09/15 08:48:21;;;;;;;0.10;0.10;;;;;;;22.08;61.94;101117.28;5032655;28;20029;-86
2021/09/15 08:50:49;;;;;;;0.20;0.20;;;;;;;22.00;61.16;101115.06;5032553;28;20029;-83
2021/09/15 08:53:17;;;;;;;0.20;0.20;;;;;;;21.93;60.34;101125.41;5032560;28;20396;-82
2021/09/15 08:55:46;;;;;;;0.15;0.15;;;;;;;21.81;60.84;101134.28;5031813;28;20033;-83
2021/09/15 08:58:14;;;;;;;0.30;0.30;;;;;;;21.76;60.72;101137.25;5032567;28;20029;-82
2021/09/15 09:00:41;;;;;;;0.32;0.32;;;;;;;21.93;60.99;101133.50;5032336;28;20112;-83
2021/09/15 09:03:08;;;;;;;0.10;0.10;;;;;;;21.95;60.92;101131.53;5032501;28;20029;-84
2021/09/15 09:05:34;;;;;;;0.85;0.85;;;;;;;22.05;61.27;101129.13;5032559;28;20036;-84
2021/09/15 09:08:00;;;;;;;0.32;0.32;;;;;;;22.10;60.95;101135.09;5032209;28;20029;-84
2021/09/15 09:10:33;;;;;;;0.22;0.22;;;;;;;21.99;59.72;101151.09;5024387;28;20040;-84
2021/09/15 09:12:59;;;;;;;1.55;0.40;;;;;;;21.98;60.03;101157.47;5007994;28;20033;-82
2021/09/15 09:15:29;;;;;;;0.25;0.25;;;;;;;22.09;59.78;101143.28;5031002;28;20045;-84
2021/09/15 09:18:00;;;;;;;4.97;0.73;;;;;;;22.11;58.70;101149.47;5030175;28;20452;-83
2021/09/15 09:23:17;;;;;;;0.55;0.55;;;;;;;22.33;59.16;101139.97;5137315;27;20421;-83
2021/09/15 09:25:46;;;;;;;0.10;0.10;;;;;;;22.35;58.62;101135.34;5134608;27;20042;-81
2021/09/15 09:28:34;;;;;;;0.32;0.32;;;;;;;22.56;58.34;101141.22;5140435;27;20469;-81
2021/09/15 09:31:04;;;;;;;0.10;0.10;;;;;;;22.61;58.46;101144.47;5102612;28;20049;-82
2021/09/15 09:33:31;;;;;;;0.13;0.13;;;;;;;22.58;57.81;101148.25;5117005;28;20058;-82
2021/09/15 09:36:01;;;;;;;0.52;0.52;;;;;;;22.69;58.09;101146.66;5107777;28;20448;-82
2021/09/15 09:43:56;;;;;;;0.10;0.10;;;;;;;22.89;58.22;101148.03;5087198;27;20916;-82
2021/09/15 09:46:33;;;;;;;1.42;1.05;;;;;;;22.74;57.04;101144.50;5069309;28;20037;-83
2021/09/15 09:49:02;;;;;;;0.10;0.10;;;;;;;22.71;57.07;101152.84;5063093;28;20034;-82
2021/09/15 09:51:44;;;;;;;0.20;0.20;;;;;;;22.91;56.97;101146.94;5050130;28;20099;-82
2021/09/15 09:54:31;;;;;;;0.10;0.10;;;;;;;22.79;56.74;101155.88;5045432;28;20075;-83
2021/09/15 09:56:58;;;;;;;0.10;0.10;;;;;;;22.67;56.88;101159.38;5037521;28;20068;-83
2021/09/15 09:59:26;;;;;;;1.30;1.20;;;;;;;22.74;56.71;101171.53;5045939;28;20395;-83
2021/09/15 10:01:57;;;;;;;0.10;0.10;;;;;;;22.57;56.46;101156.47;5049957;28;20033;-83
2021/09/15 10:04:25;;;;;;;0.10;0.10;;;;;;;22.60;57.25;101165.22;5048901;28;20110;-83
2021/09/15 10:06:51;;;;;;;0.10;0.10;;;;;;;22.66;57.34;101168.50;5049911;28;20029;-84
2021/09/15 10:09:17;;;;;;;2.45;0.90;;;;;;;22.49;57.31;101166.88;5049680;28;20370;-83
2021/09/15 10:11:44;;;;;;;0.20;0.20;;;;;;;22.46;57.00;101166.09;5049185;28;20107;-83
2021/09/15 10:14:14;;;;;;;0.10;0.10;;;;;;;22.59;57.67;101166.19;5048976;28;20041;-83
2021/09/15 10:16:48;;;;;;;0.00;0.00;;;;;;;22.28;57.70;101168.16;5049185;28;20028;-83
2021/09/15 10:19:18;;;;;;;0.10;0.10;;;;;;;22.32;57.71;101165.22;5048655;28;20013;-83
2021/09/15 10:22:04;;;;;;;0.22;0.22;;;;;;;22.24;57.87;101169.31;5029906;28;20029;-82
2021/09/15 10:24:53;;;;;;;0.10;0.10;;;;;;;22.34;56.93;101161.47;5042717;28;20037;-83
2021/09/15 10:27:23;;;;;;;0.00;0.00;;;;;;;22.43;57.33;101162.72;5048215;28;20032;-81
2021/09/15 10:30:10;;;;;;;0.10;0.10;;;;;;;22.60;57.18;101159.81;5048659;28;20124;-84
2021/09/15 10:32:39;;;;;;;0.10;0.10;;;;;;;22.52;56.85;101161.25;5048461;28;20021;-83
2021/09/15 10:35:08;;;;;;;0.20;0.20;;;;;;;22.61;56.78;101156.13;5036149;28;20040;-84
2021/09/15 10:40:37;;;;;;;0.10;0.10;;;;;;;22.88;56.99;101155.28;5133158;27;20386;-83
2021/09/15 10:43:04;;;;;;;0.10;0.10;;;;;;;22.99;56.94;101164.50;5119947;27;20118;-83
2021/09/15 10:45:31;;;;;;;0.13;0.13;;;;;;;22.97;56.37;101156.50;5110778;28;20395;-83
2021/09/15 10:48:11;;;;;;;0.10;0.10;;;;;;;23.06;56.52;101165.81;5110278;28;20024;-83
2021/09/15 10:53:22;;;;;;;0.00;0.00;;;;;;;23.31;56.55;101165.03;5110539;27;20404;-79
2021/09/15 10:56:00;;;;;;;0.05;0.05;;;;;;;23.51;56.53;101160.94;5106866;28;20473;-78
2021/09/15 11:01:06;;;;;;;0.00;0.00;;;;;;;23.66;55.95;101164.41;5107043;27;20396;-79
2021/09/15 11:03:34;;;;;;;0.10;0.10;;;;;;;23.77;55.78;101160.94;5108837;28;20036;-80
2021/09/15 11:08:52;;;;;;;0.10;0.10;;;;;;;23.62;54.49;101153.94;5079386;28;20490;-80
2021/09/15 11:16:41;;;;;;;0.10;0.10;;;;;;;23.54;54.81;101154.44;5077262;27;20435;-82
2021/09/15 11:24:25;;;;;;;0.10;0.10;;;;;;;23.78;54.16;101159.97;5063048;28;20596;-80
2021/09/15 11:29:51;;;;;;;0.10;0.10;;;;;;;23.68;53.92;101172.44;5080747;27;20878;-80
2021/09/15 11:32:19;;;;;;;0.20;0.20;;;;;;;23.58;54.27;101167.66;5069098;28;20025;-80
2021/09/15 11:34:49;;;;;;;0.10;0.10;;;;;;;23.51;54.46;101165.50;5063012;28;20037;-81
2021/09/15 11:40:04;;;;;;;0.10;0.10;;;;;;;23.52;54.53;101176.19;5060260;27;20900;-81
2021/09/15 11:42:34;;;;;;;0.10;0.10;;;;;;;23.60;54.74;101175.66;5056034;28;20036;-81
2021/09/15 11:45:22;;;;;;;0.17;0.17;;;;;;;23.69;54.77;101182.25;5059059;28;20051;-81
2021/09/15 11:47:51;;;;;;;0.00;0.00;;;;;;;23.72;55.03;101176.66;5043949;28;20393;-82
2021/09/15 11:50:21;;;;;;;0.10;0.10;;;;;;;23.77;55.20;101182.59;5062134;28;20498;-81
2021/09/15 11:52:55;;;;;;;0.68;0.68;;;;;;;23.65;54.36;101183.44;5058125;28;20489;-81
2021/09/15 11:55:21;;;;;;;0.30;0.30;;;;;;;23.74;55.13;101180.13;5049250;28;20041;-81
2021/09/15 11:57:50;;;;;;;0.30;0.30;;;;;;;23.71;55.33;101188.44;5050438;28;20029;-82
2021/09/15 12:00:17;;;;;;;0.30;0.30;;;;;;;23.73;55.09;101181.09;5050263;28;20048;-82
2021/09/15 12:02:45;;;;;;;0.25;0.25;;;;;;;23.61;54.48;101190.06;5050737;28;20083;-82
2021/09/15 12:05:13;;;;;;;0.75;0.32;;;;;;;23.52;55.10;101200.53;5050074;28;20067;-81
2021/09/15 12:07:42;;;;;;;0.10;0.10;;;;;;;23.49;54.77;101200.75;5050296;28;20030;-81
2021/09/15 12:10:10;;;;;;;0.10;0.10;;;;;;;23.45;54.93;101199.22;5047005;28;20029;-81
2021/09/15 12:12:39;;;;;;;0.10;0.10;;;;;;;23.24;55.57;101202.44;5050548;28;20079;-81